sensor_id;sensor_type;location;lat;lon;timestamp;P1;durP1;ratioP1;P2;durP2;ratioP2
24663;SDS011;12791;50.992;13.788;2022-07-12T00:02:19;1.35;;;0.50;;
24663;SDS011;12791;50.992;13.788;2022-07-12T00:04:45;0.40;;;0.40;;
24663;SDS011;12791;50.992;13.788;2022-07-12T00:07:12;1.05;;;0.50;;
24663;SDS011;12791;50.992;13.788;2022-07-12T00:09:39;1.15;;;0.40;;
24663;SDS011;12791;50.992;13.788;2022-07-12T00:12:05;0.52;;;0.40;;
24663;SDS011;12791;50.992;13.788;2022-07-12T00:14:32;0.60;;;0.50;;
24663;SDS011;12791;50.992;13.788;2022-07-12T00:16:59;0.73;;;0.40;;
24663;SDS011;12791;50.992;13.788;2022-07-12T00:19:29;1.38;;;0.60;;
24663;SDS011;12791;50.992;13.788;2022-07-12T00:21:55;0.45;;;0.45;;
24663;SDS011;12791;50.992;13.788;2022-07-12T00:24:22;1.02;;;0.43;;
24663;SDS011;12791;50.992;13.788;2022-07-12T00:26:49;1.90;;;0.40;;
24663;SDS011;12791;50.992;13.788;2022-07-12T00:29:17;0.60;;;0.50;;
24663;SDS011;12791;50.992;13.788;2022-07-12T00:31:44;1.13;;;0.40;;
24663;SDS011;12791;50.992;13.788;2022-07-12T00:34:10;1.48;;;0.50;;
24663;SDS011;12791;50.992;13.788;2022-07-12T00:36:38;1.15;;;0.60;;
24663;SDS011;12791;50.992;13.788;2022-07-12T00:39:05;1.58;;;0.55;;
24663;SDS011;12791;50.992;13.788;2022-07-12T00:41:32;1.10;;;0.45;;
24663;SDS011;12791;50.992;13.788;2022-07-12T00:43:59;0.50;;;0.40;;
24663;SDS011;12791;50.992;13.788;2022-07-12T00:46:25;0.73;;;0.50;;
24663;SDS011;12791;50.992;13.788;2022-07-12T00:48:52;0.57;;;0.57;;
24663;SDS011;12791;50.992;13.788;2022-07-12T00:51:20;1.48;;;0.30;;
24663;SDS011;12791;50.992;13.788;2022-07-12T00:53:48;0.50;;;0.50;;
24663;SDS011;12791;50.992;13.788;2022-07-12T00:56:17;0.77;;;0.50;;
24663;SDS011;12791;50.992;13.788;2022-07-12T00:58:44;0.52;;;0.50;;
24663;SDS011;12791;50.992;13.788;2022-07-12T01:01:11;0.60;;;0.60;;
24663;SDS011;12791;50.992;13.788;2022-07-12T01:03:38;2.92;;;0.50;;
24663;SDS011;12791;50.992;13.788;2022-07-12T01:06:05;0.47;;;0.47;;
24663;SDS011;12791;50.992;13.788;2022-07-12T01:08:33;0.40;;;0.40;;
24663;SDS011;12791;50.992;13.788;2022-07-12T01:11:02;0.57;;;0.55;;
24663;SDS011;12791;50.992;13.788;2022-07-12T01:13:29;2.35;;;0.50;;
24663;SDS011;12791;50.992;13.788;2022-07-12T01:15:55;0.40;;;0.40;;
24663;SDS011;12791;50.992;13.788;2022-07-12T01:18:23;0.70;;;0.57;;
24663;SDS011;12791;50.992;13.788;2022-07-12T01:20:50;0.60;;;0.50;;
24663;SDS011;12791;50.992;13.788;2022-07-12T01:23:18;0.57;;;0.57;;
24663;SDS011;12791;50.992;13.788;2022-07-12T01:25:46;1.50;;;0.45;;
24663;SDS011;12791;50.992;13.788;2022-07-12T01:28:13;0.73;;;0.50;;
24663;SDS011;12791;50.992;13.788;2022-07-12T01:30:40;0.63;;;0.43;;
24663;SDS011;12791;50.992;13.788;2022-07-12T01:33:07;0.55;;;0.50;;
24663;SDS011;12791;50.992;13.788;2022-07-12T01:35:34;1.15;;;0.50;;
24663;SDS011;12791;50.992;13.788;2022-07-12T01:38:01;0.50;;;0.50;;
24663;SDS011;12791;50.992;13.788;2022-07-12T01:40:29;1.35;;;0.40;;
24663;SDS011;12791;50.992;13.788;2022-07-12T01:42:56;0.93;;;0.50;;
24663;SDS011;12791;50.992;13.788;2022-07-12T01:45:23;0.68;;;0.68;;
24663;SDS011;12791;50.992;13.788;2022-07-12T01:47:49;0.85;;;0.50;;
24663;SDS011;12791;50.992;13.788;2022-07-12T01:50:16;3.90;;;0.70;;
24663;SDS011;12791;50.992;13.788;2022-07-12T01:52:43;1.90;;;0.70;;
24663;SDS011;12791;50.992;13.788;2022-07-12T01:55:10;0.57;;;0.50;;
24663;SDS011;12791;50.992;13.788;2022-07-12T01:57:39;1.75;;;0.65;;
24663;SDS011;12791;50.992;13.788;2022-07-12T02:00:08;1.00;;;0.60;;
24663;SDS011;12791;50.992;13.788;2022-07-12T02:02:36;0.50;;;0.50;;
24663;SDS011;12791;50.992;13.788;2022-07-12T02:05:03;0.80;;;0.50;;
24663;SDS011;12791;50.992;13.788;2022-07-12T02:07:30;0.57;;;0.57;;
24663;SDS011;12791;50.992;13.788;2022-07-12T02:09:57;0.80;;;0.47;;
24663;SDS011;12791;50.992;13.788;2022-07-12T02:12:24;0.60;;;0.50;;
24663;SDS011;12791;50.992;13.788;2022-07-12T02:14:52;0.60;;;0.60;;
24663;SDS011;12791;50.992;13.788;2022-07-12T02:17:19;1.15;;;0.68;;
24663;SDS011;12791;50.992;13.788;2022-07-12T02:19:45;0.60;;;0.60;;
24663;SDS011;12791;50.992;13.788;2022-07-12T02:22:12;0.55;;;0.50;;
24663;SDS011;12791;50.992;13.788;2022-07-12T02:24:39;0.60;;;0.60;;
24663;SDS011;12791;50.992;13.788;2022-07-12T02:27:05;0.60;;;0.60;;
24663;SDS011;12791;50.992;13.788;2022-07-12T02:29:32;0.52;;;0.52;;
24663;SDS011;12791;50.992;13.788;2022-07-12T02:32:01;0.50;;;0.50;;
24663;SDS011;12791;50.992;13.788;2022-07-12T02:34:28;1.38;;;0.60;;
24663;SDS011;12791;50.992;13.788;2022-07-12T02:36:55;1.52;;;0.60;;
24663;SDS011;12791;50.992;13.788;2022-07-12T02:39:22;1.10;;;0.60;;
24663;SDS011;12791;50.992;13.788;2022-07-12T02:41:49;0.85;;;0.70;;
24663;SDS011;12791;50.992;13.788;2022-07-12T02:44:15;1.80;;;0.73;;
24663;SDS011;12791;50.992;13.788;2022-07-12T02:46:42;0.98;;;0.65;;
24663;SDS011;12791;50.992;13.788;2022-07-12T02:49:10;0.70;;;0.70;;
24663;SDS011;12791;50.992;13.788;2022-07-12T02:51:36;0.50;;;0.50;;
24663;SDS011;12791;50.992;13.788;2022-07-12T02:54:03;0.93;;;0.50;;
24663;SDS011;12791;50.992;13.788;2022-07-12T02:56:30;0.65;;;0.65;;
24663;SDS011;12791;50.992;13.788;2022-07-12T02:58:56;1.00;;;0.70;;
24663;SDS011;12791;50.992;13.788;2022-07-12T03:01:23;0.73;;;0.40;;
24663;SDS011;12791;50.992;13.788;2022-07-12T03:03:50;0.77;;;0.55;;
24663;SDS011;12791;50.992;13.788;2022-07-12T03:06:17;0.60;;;0.60;;
24663;SDS011;12791;50.992;13.788;2022-07-12T03:08:44;0.75;;;0.60;;
24663;SDS011;12791;50.992;13.788;2022-07-12T03:11:11;0.80;;;0.63;;
24663;SDS011;12791;50.992;13.788;2022-07-12T03:13:37;1.50;;;0.50;;
24663;SDS011;12791;50.992;13.788;2022-07-12T03:16:05;0.60;;;0.60;;
24663;SDS011;12791;50.992;13.788;2022-07-12T03:18:32;0.98;;;0.63;;
24663;SDS011;12791;50.992;13.788;2022-07-12T03:20:58;3.00;;;1.00;;
24663;SDS011;12791;50.992;13.788;2022-07-12T03:23:26;0.70;;;0.70;;
24663;SDS011;12791;50.992;13.788;2022-07-12T03:25:53;1.40;;;0.85;;
24663;SDS011;12791;50.992;13.788;2022-07-12T03:28:20;0.50;;;0.50;;
24663;SDS011;12791;50.992;13.788;2022-07-12T03:30:46;0.65;;;0.65;;
24663;SDS011;12791;50.992;13.788;2022-07-12T03:33:13;1.02;;;0.70;;
24663;SDS011;12791;50.992;13.788;2022-07-12T03:35:40;3.55;;;0.60;;
24663;SDS011;12791;50.992;13.788;2022-07-12T03:38:06;1.45;;;0.77;;
24663;SDS011;12791;50.992;13.788;2022-07-12T03:40:34;0.80;;;0.80;;
24663;SDS011;12791;50.992;13.788;2022-07-12T03:43:01;1.23;;;1.13;;
24663;SDS011;12791;50.992;13.788;2022-07-12T03:45:28;1.88;;;0.80;;
24663;SDS011;12791;50.992;13.788;2022-07-12T03:47:55;0.98;;;0.60;;
24663;SDS011;12791;50.992;13.788;2022-07-12T03:50:21;1.20;;;0.55;;
24663;SDS011;12791;50.992;13.788;2022-07-12T03:52:48;0.88;;;0.88;;
24663;SDS011;12791;50.992;13.788;2022-07-12T03:55:15;1.58;;;0.70;;
24663;SDS011;12791;50.992;13.788;2022-07-12T03:57:43;0.70;;;0.70;;
24663;SDS011;12791;50.992;13.788;2022-07-12T04:00:10;0.85;;;0.70;;
24663;SDS011;12791;50.992;13.788;2022-07-12T04:02:38;0.70;;;0.70;;
24663;SDS011;12791;50.992;13.788;2022-07-12T04:05:06;1.35;;;0.90;;
24663;SDS011;12791;50.992;13.788;2022-07-12T04:07:34;2.15;;;0.70;;
24663;SDS011;12791;50.992;13.788;2022-07-12T04:10:01;1.00;;;0.70;;
24663;SDS011;12791;50.992;13.788;2022-07-12T04:12:28;0.75;;;0.75;;
24663;SDS011;12791;50.992;13.788;2022-07-12T04:14:56;0.70;;;0.70;;
24663;SDS011;12791;50.992;13.788;2022-07-12T04:17:22;1.05;;;1.05;;
24663;SDS011;12791;50.992;13.788;2022-07-12T04:19:49;1.08;;;0.90;;
24663;SDS011;12791;50.992;13.788;2022-07-12T04:22:16;1.13;;;0.93;;
24663;SDS011;12791;50.992;13.788;2022-07-12T04:24:42;1.08;;;1.05;;
24663;SDS011;12791;50.992;13.788;2022-07-12T04:27:09;1.20;;;1.08;;
24663;SDS011;12791;50.992;13.788;2022-07-12T04:29:35;1.10;;;0.90;;
24663;SDS011;12791;50.992;13.788;2022-07-12T04:32:04;1.50;;;1.00;;
24663;SDS011;12791;50.992;13.788;2022-07-12T04:34:31;3.38;;;1.00;;
24663;SDS011;12791;50.992;13.788;2022-07-12T04:36:57;1.60;;;1.10;;
24663;SDS011;12791;50.992;13.788;2022-07-12T04:39:24;2.67;;;1.02;;
24663;SDS011;12791;50.992;13.788;2022-07-12T04:41:51;5.10;;;1.10;;
24663;SDS011;12791;50.992;13.788;2022-07-12T04:44:17;2.63;;;1.35;;
24663;SDS011;12791;50.992;13.788;2022-07-12T04:46:44;1.42;;;1.33;;
24663;SDS011;12791;50.992;13.788;2022-07-12T04:49:12;3.72;;;1.60;;
24663;SDS011;12791;50.992;13.788;2022-07-12T04:51:38;3.22;;;1.33;;
24663;SDS011;12791;50.992;13.788;2022-07-12T04:54:05;2.10;;;1.52;;
24663;SDS011;12791;50.992;13.788;2022-07-12T04:56:32;3.00;;;1.77;;
24663;SDS011;12791;50.992;13.788;2022-07-12T04:58:59;4.30;;;2.20;;
24663;SDS011;12791;50.992;13.788;2022-07-12T05:01:25;4.35;;;2.72;;
24663;SDS011;12791;50.992;13.788;2022-07-12T05:03:52;2.47;;;2.20;;
24663;SDS011;12791;50.992;13.788;2022-07-12T05:06:20;2.28;;;2.00;;
24663;SDS011;12791;50.992;13.788;2022-07-12T05:08:47;2.33;;;2.10;;
24663;SDS011;12791;50.992;13.788;2022-07-12T05:11:14;2.45;;;1.55;;
24663;SDS011;12791;50.992;13.788;2022-07-12T05:13:41;3.67;;;2.10;;
24663;SDS011;12791;50.992;13.788;2022-07-12T05:16:08;2.60;;;2.40;;
24663;SDS011;12791;50.992;13.788;2022-07-12T05:18:35;3.17;;;2.50;;
24663;SDS011;12791;50.992;13.788;2022-07-12T05:21:01;2.60;;;2.40;;
24663;SDS011;12791;50.992;13.788;2022-07-12T05:23:30;2.63;;;2.40;;
24663;SDS011;12791;50.992;13.788;2022-07-12T05:25:56;2.25;;;2.13;;
24663;SDS011;12791;50.992;13.788;2022-07-12T05:28:23;4.30;;;3.20;;
24663;SDS011;12791;50.992;13.788;2022-07-12T05:30:50;3.42;;;3.08;;
24663;SDS011;12791;50.992;13.788;2022-07-12T05:33:16;2.63;;;2.42;;
24663;SDS011;12791;50.992;13.788;2022-07-12T05:35:43;4.25;;;3.38;;
24663;SDS011;12791;50.992;13.788;2022-07-12T05:38:09;4.35;;;3.95;;
24663;SDS011;12791;50.992;13.788;2022-07-12T05:40:37;4.82;;;4.38;;
24663;SDS011;12791;50.992;13.788;2022-07-12T05:43:04;4.45;;;4.00;;
24663;SDS011;12791;50.992;13.788;2022-07-12T05:45:30;4.43;;;3.97;;
24663;SDS011;12791;50.992;13.788;2022-07-12T05:47:57;5.53;;;5.10;;
24663;SDS011;12791;50.992;13.788;2022-07-12T05:50:24;4.20;;;4.00;;
24663;SDS011;12791;50.992;13.788;2022-07-12T05:52:50;3.65;;;3.35;;
24663;SDS011;12791;50.992;13.788;2022-07-12T05:55:35;4.10;;;3.70;;
24663;SDS011;12791;50.992;13.788;2022-07-12T05:58:02;4.53;;;4.22;;
24663;SDS011;12791;50.992;13.788;2022-07-12T06:00:29;3.72;;;3.35;;
24663;SDS011;12791;50.992;13.788;2022-07-12T06:02:57;3.67;;;3.47;;
24663;SDS011;12791;50.992;13.788;2022-07-12T06:05:23;3.20;;;3.00;;
24663;SDS011;12791;50.992;13.788;2022-07-12T06:07:50;3.75;;;3.55;;
24663;SDS011;12791;50.992;13.788;2022-07-12T06:10:17;4.28;;;3.88;;
24663;SDS011;12791;50.992;13.788;2022-07-12T06:12:43;3.13;;;2.90;;
24663;SDS011;12791;50.992;13.788;2022-07-12T06:15:12;3.92;;;3.72;;
24663;SDS011;12791;50.992;13.788;2022-07-12T06:17:39;3.55;;;3.22;;
24663;SDS011;12791;50.992;13.788;2022-07-12T06:20:06;4.63;;;4.22;;
24663;SDS011;12791;50.992;13.788;2022-07-12T06:22:33;4.05;;;3.38;;
24663;SDS011;12791;50.992;13.788;2022-07-12T06:24:59;3.80;;;3.50;;
24663;SDS011;12791;50.992;13.788;2022-07-12T06:27:26;3.38;;;3.17;;
24663;SDS011;12791;50.992;13.788;2022-07-12T06:29:53;3.80;;;3.50;;
24663;SDS011;12791;50.992;13.788;2022-07-12T06:32:21;3.20;;;3.10;;
24663;SDS011;12791;50.992;13.788;2022-07-12T06:34:47;3.20;;;3.00;;
24663;SDS011;12791;50.992;13.788;2022-07-12T06:37:14;4.13;;;3.92;;
24663;SDS011;12791;50.992;13.788;2022-07-12T06:39:40;4.20;;;3.17;;
24663;SDS011;12791;50.992;13.788;2022-07-12T06:42:09;3.65;;;3.35;;
24663;SDS011;12791;50.992;13.788;2022-07-12T06:44:35;3.92;;;3.72;;
24663;SDS011;12791;50.992;13.788;2022-07-12T06:47:02;4.47;;;4.00;;
24663;SDS011;12791;50.992;13.788;2022-07-12T06:49:30;4.05;;;3.75;;
24663;SDS011;12791;50.992;13.788;2022-07-12T06:51:57;3.30;;;3.03;;
24663;SDS011;12791;50.992;13.788;2022-07-12T06:54:24;3.00;;;2.80;;
24663;SDS011;12791;50.992;13.788;2022-07-12T06:56:50;3.10;;;3.00;;
24663;SDS011;12791;50.992;13.788;2022-07-12T06:59:17;3.15;;;2.85;;
24663;SDS011;12791;50.992;13.788;2022-07-12T07:01:44;2.83;;;2.70;;
24663;SDS011;12791;50.992;13.788;2022-07-12T07:04:10;3.08;;;2.88;;
24663;SDS011;12791;50.992;13.788;2022-07-12T07:06:38;3.90;;;3.60;;
24663;SDS011;12791;50.992;13.788;2022-07-12T07:09:05;3.83;;;3.53;;
24663;SDS011;12791;50.992;13.788;2022-07-12T07:11:32;3.58;;;3.25;;
24663;SDS011;12791;50.992;13.788;2022-07-12T07:14:00;5.30;;;3.65;;
24663;SDS011;12791;50.992;13.788;2022-07-12T07:16:26;4.03;;;3.70;;
24663;SDS011;12791;50.992;13.788;2022-07-12T07:18:53;4.85;;;4.35;;
24663;SDS011;12791;50.992;13.788;2022-07-12T07:21:20;3.78;;;3.50;;
24663;SDS011;12791;50.992;13.788;2022-07-12T07:23:48;4.00;;;3.80;;
24663;SDS011;12791;50.992;13.788;2022-07-12T07:26:14;4.25;;;3.85;;
24663;SDS011;12791;50.992;13.788;2022-07-12T07:28:41;3.50;;;3.25;;
24663;SDS011;12791;50.992;13.788;2022-07-12T07:31:25;3.38;;;3.17;;
24663;SDS011;12791;50.992;13.788;2022-07-12T07:33:52;3.40;;;3.10;;
24663;SDS011;12791;50.992;13.788;2022-07-12T07:36:19;3.55;;;3.25;;
24663;SDS011;12791;50.992;13.788;2022-07-12T07:38:45;4.65;;;3.22;;
24663;SDS011;12791;50.992;13.788;2022-07-12T07:41:13;4.35;;;3.80;;
24663;SDS011;12791;50.992;13.788;2022-07-12T07:43:40;4.47;;;3.80;;
24663;SDS011;12791;50.992;13.788;2022-07-12T07:46:07;4.13;;;3.55;;
24663;SDS011;12791;50.992;13.788;2022-07-12T07:48:33;3.67;;;2.90;;
24663;SDS011;12791;50.992;13.788;2022-07-12T07:51:00;3.38;;;2.70;;
24663;SDS011;12791;50.992;13.788;2022-07-12T07:53:26;4.32;;;3.50;;
24663;SDS011;12791;50.992;13.788;2022-07-12T07:55:55;2.92;;;2.83;;
24663;SDS011;12791;50.992;13.788;2022-07-12T07:58:22;2.90;;;2.22;;
24663;SDS011;12791;50.992;13.788;2022-07-12T08:00:49;1.90;;;1.80;;
24663;SDS011;12791;50.992;13.788;2022-07-12T08:03:16;2.70;;;1.30;;
24663;SDS011;12791;50.992;13.788;2022-07-12T08:05:43;4.15;;;2.10;;
24663;SDS011;12791;50.992;13.788;2022-07-12T08:08:10;4.63;;;2.00;;
24663;SDS011;12791;50.992;13.788;2022-07-12T08:10:36;2.20;;;1.50;;
24663;SDS011;12791;50.992;13.788;2022-07-12T08:13:05;1.85;;;1.48;;
24663;SDS011;12791;50.992;13.788;2022-07-12T08:15:32;1.65;;;0.93;;
24663;SDS011;12791;50.992;13.788;2022-07-12T08:17:59;1.23;;;1.13;;
24663;SDS011;12791;50.992;13.788;2022-07-12T08:20:25;1.98;;;1.02;;
24663;SDS011;12791;50.992;13.788;2022-07-12T08:22:52;0.95;;;0.60;;
24663;SDS011;12791;50.992;13.788;2022-07-12T08:25:19;1.00;;;0.90;;
24663;SDS011;12791;50.992;13.788;2022-07-12T08:27:45;4.30;;;0.95;;
24663;SDS011;12791;50.992;13.788;2022-07-12T08:30:13;0.93;;;0.68;;
24663;SDS011;12791;50.992;13.788;2022-07-12T08:32:42;2.00;;;0.80;;
24663;SDS011;12791;50.992;13.788;2022-07-12T08:35:09;0.82;;;0.82;;
24663;SDS011;12791;50.992;13.788;2022-07-12T08:37:36;2.20;;;1.13;;
24663;SDS011;12791;50.992;13.788;2022-07-12T08:40:03;2.42;;;1.33;;
24663;SDS011;12791;50.992;13.788;2022-07-12T08:42:31;1.23;;;1.13;;
24663;SDS011;12791;50.992;13.788;2022-07-12T08:44:58;4.97;;;1.05;;
24663;SDS011;12791;50.992;13.788;2022-07-12T08:47:27;1.40;;;0.77;;
24663;SDS011;12791;50.992;13.788;2022-07-12T08:50:09;1.30;;;0.90;;
24663;SDS011;12791;50.992;13.788;2022-07-12T08:52:42;0.60;;;0.60;;
24663;SDS011;12791;50.992;13.788;2022-07-12T08:55:20;2.03;;;0.70;;
24663;SDS011;12791;50.992;13.788;2022-07-12T08:57:49;0.75;;;0.70;;
24663;SDS011;12791;50.992;13.788;2022-07-12T09:00:17;1.65;;;0.73;;
24663;SDS011;12791;50.992;13.788;2022-07-12T09:02:47;2.35;;;0.73;;
24663;SDS011;12791;50.992;13.788;2022-07-12T09:05:15;1.45;;;1.00;;
24663;SDS011;12791;50.992;13.788;2022-07-12T09:07:43;2.60;;;0.95;;
24663;SDS011;12791;50.992;13.788;2022-07-12T09:10:11;2.25;;;1.05;;
24663;SDS011;12791;50.992;13.788;2022-07-12T09:12:39;1.38;;;0.75;;
24663;SDS011;12791;50.992;13.788;2022-07-12T09:15:10;0.60;;;0.60;;
24663;SDS011;12791;50.992;13.788;2022-07-12T09:17:37;0.73;;;0.60;;
24663;SDS011;12791;50.992;13.788;2022-07-12T09:20:06;2.15;;;0.50;;
24663;SDS011;12791;50.992;13.788;2022-07-12T09:22:35;2.15;;;0.60;;
24663;SDS011;12791;50.992;13.788;2022-07-12T09:25:08;1.95;;;0.50;;
24663;SDS011;12791;50.992;13.788;2022-07-12T09:27:41;0.50;;;0.50;;
24663;SDS011;12791;50.992;13.788;2022-07-12T09:30:13;0.63;;;0.50;;
24663;SDS011;12791;50.992;13.788;2022-07-12T09:32:48;1.83;;;0.50;;
24663;SDS011;12791;50.992;13.788;2022-07-12T09:35:35;0.95;;;0.40;;
24663;SDS011;12791;50.992;13.788;2022-07-12T09:38:20;2.00;;;0.40;;
24663;SDS011;12791;50.992;13.788;2022-07-12T09:40:46;0.77;;;0.52;;
24663;SDS011;12791;50.992;13.788;2022-07-12T09:43:14;0.55;;;0.40;;
24663;SDS011;12791;50.992;13.788;2022-07-12T09:45:41;1.27;;;0.40;;
24663;SDS011;12791;50.992;13.788;2022-07-12T09:48:09;1.58;;;0.52;;
24663;SDS011;12791;50.992;13.788;2022-07-12T09:50:37;0.50;;;0.40;;
24663;SDS011;12791;50.992;13.788;2022-07-12T09:53:04;0.75;;;0.40;;
24663;SDS011;12791;50.992;13.788;2022-07-12T09:55:35;0.50;;;0.50;;
24663;SDS011;12791;50.992;13.788;2022-07-12T09:58:05;1.98;;;0.38;;
24663;SDS011;12791;50.992;13.788;2022-07-12T10:00:34;0.88;;;0.40;;
24663;SDS011;12791;50.992;13.788;2022-07-12T10:03:02;1.75;;;0.40;;
24663;SDS011;12791;50.992;13.788;2022-07-12T10:05:29;0.98;;;0.40;;
24663;SDS011;12791;50.992;13.788;2022-07-12T10:07:58;0.30;;;0.30;;
24663;SDS011;12791;50.992;13.788;2022-07-12T10:10:25;1.38;;;0.30;;
24663;SDS011;12791;50.992;13.788;2022-07-12T10:12:53;1.30;;;0.40;;
24663;SDS011;12791;50.992;13.788;2022-07-12T10:15:20;0.93;;;0.65;;
24663;SDS011;12791;50.992;13.788;2022-07-12T10:17:53;1.02;;;0.50;;
24663;SDS011;12791;50.992;13.788;2022-07-12T10:20:21;0.95;;;0.40;;
24663;SDS011;12791;50.992;13.788;2022-07-12T10:22:49;2.17;;;0.35;;
24663;SDS011;12791;50.992;13.788;2022-07-12T10:25:29;2.95;;;0.20;;
24663;SDS011;12791;50.992;13.788;2022-07-12T10:27:56;1.55;;;0.43;;
24663;SDS011;12791;50.992;13.788;2022-07-12T10:30:24;1.50;;;0.30;;
24663;SDS011;12791;50.992;13.788;2022-07-12T10:32:51;0.63;;;0.30;;
24663;SDS011;12791;50.992;13.788;2022-07-12T10:35:22;0.20;;;0.20;;
24663;SDS011;12791;50.992;13.788;2022-07-12T10:40:48;0.95;;;0.30;;
24663;SDS011;12791;50.992;13.788;2022-07-12T10:43:20;2.30;;;0.30;;
24663;SDS011;12791;50.992;13.788;2022-07-12T10:46:18;0.75;;;0.20;;
24663;SDS011;12791;50.992;13.788;2022-07-12T10:48:48;0.20;;;0.20;;
24663;SDS011;12791;50.992;13.788;2022-07-12T10:51:15;0.30;;;0.20;;
24663;SDS011;12791;50.992;13.788;2022-07-12T10:53:44;0.30;;;0.30;;
24663;SDS011;12791;50.992;13.788;2022-07-12T10:56:15;1.48;;;0.20;;
24663;SDS011;12791;50.992;13.788;2022-07-12T10:58:44;0.50;;;0.20;;
24663;SDS011;12791;50.992;13.788;2022-07-12T11:01:13;0.65;;;0.30;;
24663;SDS011;12791;50.992;13.788;2022-07-12T11:03:42;0.38;;;0.22;;
24663;SDS011;12791;50.992;13.788;2022-07-12T11:06:10;0.55;;;0.20;;
24663;SDS011;12791;50.992;13.788;2022-07-12T11:08:48;0.40;;;0.20;;
24663;SDS011;12791;50.992;13.788;2022-07-12T11:11:17;0.20;;;0.20;;
24663;SDS011;12791;50.992;13.788;2022-07-12T11:13:44;1.42;;;0.20;;
24663;SDS011;12791;50.992;13.788;2022-07-12T11:16:11;0.20;;;0.10;;
24663;SDS011;12791;50.992;13.788;2022-07-12T11:18:38;2.38;;;0.20;;
24663;SDS011;12791;50.992;13.788;2022-07-12T11:21:05;0.65;;;0.10;;
24663;SDS011;12791;50.992;13.788;2022-07-12T11:23:32;0.85;;;0.15;;
24663;SDS011;12791;50.992;13.788;2022-07-12T11:25:59;3.70;;;0.30;;
24663;SDS011;12791;50.992;13.788;2022-07-12T11:28:28;0.40;;;0.20;;
24663;SDS011;12791;50.992;13.788;2022-07-12T11:31:00;1.00;;;0.20;;
24663;SDS011;12791;50.992;13.788;2022-07-12T11:33:30;1.35;;;0.17;;
24663;SDS011;12791;50.992;13.788;2022-07-12T11:35:58;0.20;;;0.10;;
24663;SDS011;12791;50.992;13.788;2022-07-12T11:38:26;0.22;;;0.20;;
24663;SDS011;12791;50.992;13.788;2022-07-12T11:40:54;2.70;;;0.30;;
24663;SDS011;12791;50.992;13.788;2022-07-12T11:43:22;0.75;;;0.20;;
24663;SDS011;12791;50.992;13.788;2022-07-12T11:45:50;0.35;;;0.10;;
24663;SDS011;12791;50.992;13.788;2022-07-12T11:48:17;1.25;;;0.13;;
24663;SDS011;12791;50.992;13.788;2022-07-12T11:50:44;0.13;;;0.10;;
24663;SDS011;12791;50.992;13.788;2022-07-12T11:53:14;0.40;;;0.13;;
24663;SDS011;12791;50.992;13.788;2022-07-12T11:55:41;1.25;;;0.20;;
24663;SDS011;12791;50.992;13.788;2022-07-12T11:58:10;3.85;;;0.20;;
24663;SDS011;12791;50.992;13.788;2022-07-12T12:00:37;2.15;;;0.20;;
24663;SDS011;12791;50.992;13.788;2022-07-12T12:03:05;0.10;;;0.10;;
24663;SDS011;12791;50.992;13.788;2022-07-12T12:05:33;0.28;;;0.10;;
24663;SDS011;12791;50.992;13.788;2022-07-12T12:08:02;0.40;;;0.10;;
24663;SDS011;12791;50.992;13.788;2022-07-12T12:10:29;0.22;;;0.17;;
24663;SDS011;12791;50.992;13.788;2022-07-12T12:12:57;1.77;;;0.20;;
24663;SDS011;12791;50.992;13.788;2022-07-12T12:15:26;0.30;;;0.10;;
24663;SDS011;12791;50.992;13.788;2022-07-12T12:17:54;2.33;;;0.40;;
24663;SDS011;12791;50.992;13.788;2022-07-12T12:20:24;0.20;;;0.13;;
24663;SDS011;12791;50.992;13.788;2022-07-12T12:22:52;0.38;;;0.20;;
24663;SDS011;12791;50.992;13.788;2022-07-12T12:25:20;0.60;;;0.20;;
24663;SDS011;12791;50.992;13.788;2022-07-12T12:27:47;0.10;;;0.10;;
24663;SDS011;12791;50.992;13.788;2022-07-12T12:30:15;0.63;;;0.20;;
24663;SDS011;12791;50.992;13.788;2022-07-12T12:32:47;0.60;;;0.20;;
24663;SDS011;12791;50.992;13.788;2022-07-12T12:35:19;0.20;;;0.20;;
24663;SDS011;12791;50.992;13.788;2022-07-12T12:37:53;0.55;;;0.20;;
24663;SDS011;12791;50.992;13.788;2022-07-12T12:40:23;0.75;;;0.20;;
24663;SDS011;12791;50.992;13.788;2022-07-12T12:42:51;0.50;;;0.20;;
24663;SDS011;12791;50.992;13.788;2022-07-12T12:45:19;0.43;;;0.15;;
24663;SDS011;12791;50.992;13.788;2022-07-12T12:47:57;0.77;;;0.20;;
24663;SDS011;12791;50.992;13.788;2022-07-12T12:50:38;1.52;;;0.30;;
24663;SDS011;12791;50.992;13.788;2022-07-12T12:53:08;0.88;;;0.28;;
24663;SDS011;12791;50.992;13.788;2022-07-12T12:55:38;2.20;;;0.20;;
24663;SDS011;12791;50.992;13.788;2022-07-12T12:58:05;0.75;;;0.20;;
24663;SDS011;12791;50.992;13.788;2022-07-12T13:00:32;0.10;;;0.10;;
24663;SDS011;12791;50.992;13.788;2022-07-12T13:03:02;0.10;;;0.10;;
24663;SDS011;12791;50.992;13.788;2022-07-12T13:05:29;1.45;;;0.17;;
24663;SDS011;12791;50.992;13.788;2022-07-12T13:07:56;0.47;;;0.20;;
24663;SDS011;12791;50.992;13.788;2022-07-12T13:10:24;0.57;;;0.20;;
24663;SDS011;12791;50.992;13.788;2022-07-12T13:12:51;0.52;;;0.10;;
24663;SDS011;12791;50.992;13.788;2022-07-12T13:15:18;1.40;;;0.20;;
24663;SDS011;12791;50.992;13.788;2022-07-12T13:17:45;0.88;;;0.20;;
24663;SDS011;12791;50.992;13.788;2022-07-12T13:20:13;0.30;;;0.20;;
24663;SDS011;12791;50.992;13.788;2022-07-12T13:22:40;0.63;;;0.35;;
24663;SDS011;12791;50.992;13.788;2022-07-12T13:25:08;0.22;;;0.20;;
24663;SDS011;12791;50.992;13.788;2022-07-12T13:27:36;0.70;;;0.32;;
24663;SDS011;12791;50.992;13.788;2022-07-12T13:30:03;1.67;;;0.28;;
24663;SDS011;12791;50.992;13.788;2022-07-12T13:32:32;1.80;;;0.50;;
24663;SDS011;12791;50.992;13.788;2022-07-12T13:34:59;1.85;;;0.30;;
24663;SDS011;12791;50.992;13.788;2022-07-12T13:37:26;6.38;;;0.75;;
24663;SDS011;12791;50.992;13.788;2022-07-12T13:39:52;0.20;;;0.20;;
24663;SDS011;12791;50.992;13.788;2022-07-12T13:42:41;0.55;;;0.30;;
24663;SDS011;12791;50.992;13.788;2022-07-12T13:45:09;0.47;;;0.20;;
24663;SDS011;12791;50.992;13.788;2022-07-12T13:47:37;2.58;;;0.20;;
24663;SDS011;12791;50.992;13.788;2022-07-12T13:50:05;0.75;;;0.20;;
24663;SDS011;12791;50.992;13.788;2022-07-12T13:52:32;2.33;;;0.20;;
24663;SDS011;12791;50.992;13.788;2022-07-12T13:54:59;0.22;;;0.10;;
24663;SDS011;12791;50.992;13.788;2022-07-12T13:57:26;0.45;;;0.20;;
24663;SDS011;12791;50.992;13.788;2022-07-12T13:59:54;1.17;;;0.20;;
24663;SDS011;12791;50.992;13.788;2022-07-12T14:02:23;0.70;;;0.30;;
24663;SDS011;12791;50.992;13.788;2022-07-12T14:04:49;0.40;;;0.20;;
24663;SDS011;12791;50.992;13.788;2022-07-12T14:07:16;0.28;;;0.20;;
24663;SDS011;12791;50.992;13.788;2022-07-12T14:09:43;0.80;;;0.40;;
24663;SDS011;12791;50.992;13.788;2022-07-12T14:12:09;0.95;;;0.20;;
24663;SDS011;12791;50.992;13.788;2022-07-12T14:14:36;1.10;;;0.20;;
24663;SDS011;12791;50.992;13.788;2022-07-12T14:17:22;0.20;;;0.20;;
24663;SDS011;12791;50.992;13.788;2022-07-12T14:19:49;2.53;;;0.30;;
24663;SDS011;12791;50.992;13.788;2022-07-12T14:22:15;1.30;;;0.20;;
24663;SDS011;12791;50.992;13.788;2022-07-12T14:24:42;1.67;;;0.20;;
24663;SDS011;12791;50.992;13.788;2022-07-12T14:27:09;0.20;;;0.20;;
24663;SDS011;12791;50.992;13.788;2022-07-12T14:29:35;0.95;;;0.20;;
24663;SDS011;12791;50.992;13.788;2022-07-12T14:32:02;0.45;;;0.20;;
24663;SDS011;12791;50.992;13.788;2022-07-12T14:34:30;0.20;;;0.20;;
24663;SDS011;12791;50.992;13.788;2022-07-12T14:36:57;0.50;;;0.40;;
24663;SDS011;12791;50.992;13.788;2022-07-12T14:39:24;1.08;;;0.30;;
24663;SDS011;12791;50.992;13.788;2022-07-12T14:41:50;1.10;;;0.30;;